sensor_id;sensor_type;location;lat;lon;timestamp;pressure;altitude;pressure_sealevel;temperature;humidity
10115;BME280;5097;43.260;27.812;2022-10-16T00:00:38;100876.31;;;10.20;73.69
10115;BME280;5097;43.260;27.812;2022-10-16T00:03:24;100874.19;;;10.30;73.28
10115;BME280;5097;43.260;27.812;2022-10-16T00:06:12;100822.63;;;9.99;73.16
10115;BME280;5097;43.260;27.812;2022-10-16T00:08:58;100874.06;;;10.33;73.14
10115;BME280;5097;43.260;27.812;2022-10-16T00:11:42;100875.69;;;10.37;72.88
10115;BME280;5097;43.260;27.812;2022-10-16T00:14:27;100876.72;;;10.33;72.98
10115;BME280;5097;43.260;27.812;2022-10-16T00:17:10;100882.81;;;10.35;72.58
10115;BME280;5097;43.260;27.812;2022-10-16T00:19:56;100876.50;;;10.39;72.48
10115;BME280;5097;43.260;27.812;2022-10-16T00:22:59;100884.63;;;10.33;72.46
10115;BME280;5097;43.260;27.812;2022-10-16T00:25:43;100888.19;;;10.32;72.61
10115;BME280;5097;43.260;27.812;2022-10-16T00:28:27;100882.22;;;10.27;72.83
10115;BME280;5097;43.260;27.812;2022-10-16T00:31:12;100875.88;;;10.31;72.43
10115;BME280;5097;43.260;27.812;2022-10-16T00:33:56;100880.41;;;10.29;72.69
10115;BME280;5097;43.260;27.812;2022-10-16T00:36:42;100849.13;;;10.18;72.24
10115;BME280;5097;43.260;27.812;2022-10-16T00:39:26;100829.59;;;10.00;72.63
10115;BME280;5097;43.260;27.812;2022-10-16T00:42:14;100833.03;;;10.02;72.34
10115;BME280;5097;43.260;27.812;2022-10-16T00:44:58;100871.38;;;10.13;73.02
10115;BME280;5097;43.260;27.812;2022-10-16T00:47:46;100823.75;;;9.92;72.92
10115;BME280;5097;43.260;27.812;2022-10-16T00:50:33;100863.38;;;10.14;73.03
10115;BME280;5097;43.260;27.812;2022-10-16T00:53:19;100838.31;;;10.02;72.62
10115;BME280;5097;43.260;27.812;2022-10-16T00:56:04;100877.97;;;10.23;72.62
10115;BME280;5097;43.260;27.812;2022-10-16T00:58:48;100832.16;;;10.02;72.32
10115;BME280;5097;43.260;27.812;2022-10-16T01:01:32;100840.91;;;10.04;72.36
10115;BME280;5097;43.260;27.812;2022-10-16T01:04:16;100873.75;;;10.19;72.37
10115;BME280;5097;43.260;27.812;2022-10-16T01:07:06;100862.75;;;10.07;72.88
10115;BME280;5097;43.260;27.812;2022-10-16T01:10:03;100892.28;;;10.17;72.23
10115;BME280;5097;43.260;27.812;2022-10-16T01:12:52;100888.91;;;10.14;72.26
10115;BME280;5097;43.260;27.812;2022-10-16T01:15:42;100892.28;;;10.17;72.17
10115;BME280;5097;43.260;27.812;2022-10-16T01:18:32;100879.59;;;9.81;72.51
10115;BME280;5097;43.260;27.812;2022-10-16T01:21:22;100882.22;;;9.81;72.42
10115;BME280;5097;43.260;27.812;2022-10-16T01:24:12;100906.19;;;10.22;71.56
10115;BME280;5097;43.260;27.812;2022-10-16T01:27:11;100912.41;;;9.98;72.12
10115;BME280;5097;43.260;27.812;2022-10-16T01:29:59;100912.66;;;9.92;72.31
10115;BME280;5097;43.260;27.812;2022-10-16T01:32:49;100917.50;;;10.02;72.10
10115;BME280;5097;43.260;27.812;2022-10-16T01:35:36;100878.41;;;9.66;72.27
10115;BME280;5097;43.260;27.812;2022-10-16T01:38:26;100928.53;;;9.90;72.19
10115;BME280;5097;43.260;27.812;2022-10-16T01:41:17;100929.91;;;10.00;72.04
10115;BME280;5097;43.260;27.812;2022-10-16T01:44:04;100926.47;;;9.98;71.76
10115;BME280;5097;43.260;27.812;2022-10-16T01:46:51;100891.25;;;9.76;71.70
10115;BME280;5097;43.260;27.812;2022-10-16T01:49:38;100888.31;;;9.83;71.59
10115;BME280;5097;43.260;27.812;2022-10-16T01:52:25;100894.69;;;9.78;71.71
10115;BME280;5097;43.260;27.812;2022-10-16T01:55:17;100852.91;;;9.42;71.98
10115;BME280;5097;43.260;27.812;2022-10-16T01:58:05;100882.41;;;9.53;72.76
10115;BME280;5097;43.260;27.812;2022-10-16T02:00:53;100885.75;;;9.58;72.59
10115;BME280;5097;43.260;27.812;2022-10-16T02:03:40;100920.56;;;9.92;71.98
10115;BME280;5097;43.260;27.812;2022-10-16T02:06:26;100888.47;;;9.79;71.76
10115;BME280;5097;43.260;27.812;2022-10-16T02:09:10;100877.78;;;9.34;72.80
10115;BME280;5097;43.260;27.812;2022-10-16T02:11:56;100880.63;;;9.30;73.00
10115;BME280;5097;43.260;27.812;2022-10-16T02:14:41;100926.34;;;9.54;72.68
10115;BME280;5097;43.260;27.812;2022-10-16T02:17:27;100923.13;;;9.46;72.95
10115;BME280;5097;43.260;27.812;2022-10-16T02:20:11;100929.78;;;9.31;73.37
10115;BME280;5097;43.260;27.812;2022-10-16T02:22:56;100931.41;;;9.10;74.10
10115;BME280;5097;43.260;27.812;2022-10-16T02:25:43;100922.03;;;9.26;73.70
10115;BME280;5097;43.260;27.812;2022-10-16T02:28:35;100900.81;;;9.04;73.72
10115;BME280;5097;43.260;27.812;2022-10-16T02:31:24;100864.25;;;8.69;73.58
10115;BME280;5097;43.260;27.812;2022-10-16T02:34:13;100924.81;;;8.96;73.50
10115;BME280;5097;43.260;27.812;2022-10-16T02:37:00;100906.38;;;8.69;73.76
10115;BME280;5097;43.260;27.812;2022-10-16T02:39:45;100902.06;;;8.67;73.63
10115;BME280;5097;43.260;27.812;2022-10-16T02:42:32;100907.00;;;8.78;73.33
10115;BME280;5097;43.260;27.812;2022-10-16T02:45:17;100872.09;;;8.43;73.47
10115;BME280;5097;43.260;27.812;2022-10-16T02:48:01;100945.53;;;8.80;73.51
10115;BME280;5097;43.260;27.812;2022-10-16T02:50:47;100907.34;;;8.67;73.35
10115;BME280;5097;43.260;27.812;2022-10-16T02:53:31;100896.66;;;8.43;73.56
10115;BME280;5097;43.260;27.812;2022-10-16T02:56:15;100948.19;;;8.80;73.15
10115;BME280;5097;43.260;27.812;2022-10-16T02:58:59;100949.03;;;8.81;72.86
10115;BME280;5097;43.260;27.812;2022-10-16T03:01:43;100912.56;;;8.68;72.48
10115;BME280;5097;43.260;27.812;2022-10-16T03:04:27;100916.91;;;8.69;72.16
10115;BME280;5097;43.260;27.812;2022-10-16T03:07:13;100939.81;;;8.94;71.89
10115;BME280;5097;43.260;27.812;2022-10-16T03:09:57;100882.03;;;8.61;71.81
10115;BME280;5097;43.260;27.812;2022-10-16T03:12:44;100937.38;;;8.88;71.94
10115;BME280;5097;43.260;27.812;2022-10-16T03:15:28;100902.44;;;8.83;71.32
10115;BME280;5097;43.260;27.812;2022-10-16T03:18:12;100902.72;;;8.74;71.28
10115;BME280;5097;43.260;27.812;2022-10-16T03:20:56;100914.16;;;8.99;70.68
10115;BME280;5097;43.260;27.812;2022-10-16T03:23:42;100941.31;;;9.01;71.23
10115;BME280;5097;43.260;27.812;2022-10-16T03:26:26;100898.00;;;8.83;70.90
10115;BME280;5097;43.260;27.812;2022-10-16T03:29:10;100874.97;;;8.63;70.69
10115;BME280;5097;43.260;27.812;2022-10-16T03:31:53;100896.44;;;8.78;70.87
10115;BME280;5097;43.260;27.812;2022-10-16T03:34:37;100940.09;;;9.12;70.66
10115;BME280;5097;43.260;27.812;2022-10-16T03:37:21;100932.19;;;8.85;70.87
10115;BME280;5097;43.260;27.812;2022-10-16T03:40:08;100942.72;;;9.12;70.61
10115;BME280;5097;43.260;27.812;2022-10-16T03:42:52;100942.19;;;9.02;70.77
10115;BME280;5097;43.260;27.812;2022-10-16T03:45:37;100940.22;;;9.09;70.45
10115;BME280;5097;43.260;27.812;2022-10-16T03:48:22;100951.25;;;8.93;71.15
10115;BME280;5097;43.260;27.812;2022-10-16T03:51:06;100950.63;;;9.12;70.55
10115;BME280;5097;43.260;27.812;2022-10-16T03:53:49;100956.81;;;9.11;70.42
10115;BME280;5097;43.260;27.812;2022-10-16T03:56:35;100948.25;;;9.04;70.81
10115;BME280;5097;43.260;27.812;2022-10-16T03:59:18;100952.88;;;8.97;70.97
10115;BME280;5097;43.260;27.812;2022-10-16T04:02:02;100963.34;;;9.00;70.91
10115;BME280;5097;43.260;27.812;2022-10-16T04:04:46;100949.75;;;8.86;71.20
10115;BME280;5097;43.260;27.812;2022-10-16T04:07:30;100955.69;;;8.93;70.78
10115;BME280;5097;43.260;27.812;2022-10-16T04:10:13;100962.09;;;9.11;70.61
10115;BME280;5097;43.260;27.812;2022-10-16T04:12:59;100958.25;;;8.94;71.09
10115;BME280;5097;43.260;27.812;2022-10-16T04:15:44;100929.25;;;8.67;71.46
10115;BME280;5097;43.260;27.812;2022-10-16T04:18:28;100960.84;;;8.96;70.69
10115;BME280;5097;43.260;27.812;2022-10-16T04:21:12;100945.97;;;8.66;71.19
10115;BME280;5097;43.260;27.812;2022-10-16T04:23:56;100963.00;;;8.56;71.57
10115;BME280;5097;43.260;27.812;2022-10-16T04:26:40;100974.75;;;8.44;71.97
10115;BME280;5097;43.260;27.812;2022-10-16T04:29:25;100966.13;;;8.39;71.96
10115;BME280;5097;43.260;27.812;2022-10-16T04:32:09;100930.50;;;8.27;71.89
10115;BME280;5097;43.260;27.812;2022-10-16T04:34:53;100964.91;;;8.51;71.66
10115;BME280;5097;43.260;27.812;2022-10-16T04:37:36;100969.66;;;8.38;72.28
10115;BME280;5097;43.260;27.812;2022-10-16T04:40:20;100971.38;;;8.39;72.41
10115;BME280;5097;43.260;27.812;2022-10-16T04:43:04;100965.34;;;8.35;72.34
10115;BME280;5097;43.260;27.812;2022-10-16T04:45:51;100969.75;;;8.35;72.55
10115;BME280;5097;43.260;27.812;2022-10-16T04:48:35;100957.88;;;8.21;72.66
10115;BME280;5097;43.260;27.812;2022-10-16T04:51:19;100948.94;;;7.97;72.91
10115;BME280;5097;43.260;27.812;2022-10-16T04:54:03;100974.50;;;8.22;72.96
10115;BME280;5097;43.260;27.812;2022-10-16T04:56:46;100973.22;;;8.35;71.93
10115;BME280;5097;43.260;27.812;2022-10-16T04:59:32;100978.66;;;8.31;72.24
10115;BME280;5097;43.260;27.812;2022-10-16T05:02:17;100983.69;;;8.38;71.82
10115;BME280;5097;43.260;27.812;2022-10-16T05:05:01;100989.84;;;8.37;72.10
10115;BME280;5097;43.260;27.812;2022-10-16T05:07:45;100991.38;;;8.45;71.53
10115;BME280;5097;43.260;27.812;2022-10-16T05:10:29;100990.38;;;8.50;71.13
10115;BME280;5097;43.260;27.812;2022-10-16T05:13:13;100994.81;;;8.48;71.67
10115;BME280;5097;43.260;27.812;2022-10-16T05:15:56;100994.31;;;8.65;70.97
10115;BME280;5097;43.260;27.812;2022-10-16T05:18:42;100981.97;;;8.37;71.01
10115;BME280;5097;43.260;27.812;2022-10-16T05:21:25;101006.94;;;8.82;70.52
10115;BME280;5097;43.260;27.812;2022-10-16T05:24:09;101012.69;;;8.95;69.88
10115;BME280;5097;43.260;27.812;2022-10-16T05:26:53;101005.94;;;8.86;69.73
10115;BME280;5097;43.260;27.812;2022-10-16T05:29:37;101016.13;;;9.24;68.82
10115;BME280;5097;43.260;27.812;2022-10-16T05:32:21;100994.00;;;9.03;69.13
10115;BME280;5097;43.260;27.812;2022-10-16T05:35:07;100984.53;;;9.22;68.45
10115;BME280;5097;43.260;27.812;2022-10-16T05:37:54;101031.41;;;9.66;68.09
10115;BME280;5097;43.260;27.812;2022-10-16T05:40:37;101028.50;;;9.74;67.62
10115;BME280;5097;43.260;27.812;2022-10-16T05:43:22;101038.25;;;9.97;67.12
10115;BME280;5097;43.260;27.812;2022-10-16T05:46:06;101018.84;;;9.48;67.71
10115;BME280;5097;43.260;27.812;2022-10-16T05:48:51;101040.56;;;9.81;67.69
10115;BME280;5097;43.260;27.812;2022-10-16T05:51:36;101047.19;;;9.93;67.13
10115;BME280;5097;43.260;27.812;2022-10-16T05:54:20;101054.91;;;9.99;67.16
10115;BME280;5097;43.260;27.812;2022-10-16T05:57:04;101052.28;;;9.98;67.14
10115;BME280;5097;43.260;27.812;2022-10-16T05:59:49;101048.41;;;10.08;66.78
10115;BME280;5097;43.260;27.812;2022-10-16T06:02:32;101052.13;;;10.28;66.55
10115;BME280;5097;43.260;27.812;2022-10-16T06:05:16;101018.00;;;10.21;66.13
10115;BME280;5097;43.260;27.812;2022-10-16T06:08:01;101012.50;;;10.28;65.94
10115;BME280;5097;43.260;27.812;2022-10-16T06:10:45;101060.59;;;10.83;65.33
10115;BME280;5097;43.260;27.812;2022-10-16T06:13:29;101070.13;;;10.87;65.02
10115;BME280;5097;43.260;27.812;2022-10-16T06:16:13;101059.56;;;11.10;64.15
10115;BME280;5097;43.260;27.812;2022-10-16T06:18:56;101070.56;;;11.21;63.27
10115;BME280;5097;43.260;27.812;2022-10-16T06:21:41;101070.00;;;11.35;62.93
10115;BME280;5097;43.260;27.812;2022-10-16T06:24:27;101051.97;;;11.45;61.92
10115;BME280;5097;43.260;27.812;2022-10-16T06:27:10;101066.94;;;11.87;61.00
10115;BME280;5097;43.260;27.812;2022-10-16T06:29:54;101062.31;;;12.13;60.82
10115;BME280;5097;43.260;27.812;2022-10-16T06:32:38;101076.63;;;12.09;60.25
10115;BME280;5097;43.260;27.812;2022-10-16T06:35:22;101072.59;;;12.19;59.96
10115;BME280;5097;43.260;27.812;2022-10-16T06:38:06;101076.47;;;12.12;59.89
10115;BME280;5097;43.260;27.812;2022-10-16T06:40:53;101085.06;;;12.17;59.55
10115;BME280;5097;43.260;27.812;2022-10-16T06:43:36;101077.91;;;12.58;58.91
10115;BME280;5097;43.260;27.812;2022-10-16T06:46:22;101081.53;;;12.56;58.59
10115;BME280;5097;43.260;27.812;2022-10-16T06:49:06;101115.06;;;12.57;58.58
10115;BME280;5097;43.260;27.812;2022-10-16T06:51:50;101057.34;;;12.45;58.29
10115;BME280;5097;43.260;27.812;2022-10-16T06:54:34;101098.47;;;12.91;57.83
10115;BME280;5097;43.260;27.812;2022-10-16T06:57:25;101106.56;;;13.07;57.57
10115;BME280;5097;43.260;27.812;2022-10-16T07:00:09;101089.41;;;13.15;57.38
10115;BME280;5097;43.260;27.812;2022-10-16T07:02:53;101109.47;;;13.39;57.18
10115;BME280;5097;43.260;27.812;2022-10-16T07:05:37;101109.91;;;13.30;57.58
10115;BME280;5097;43.260;27.812;2022-10-16T07:08:21;101105.03;;;13.57;57.17
10115;BME280;5097;43.260;27.812;2022-10-16T07:11:06;101114.94;;;13.71;56.75
10115;BME280;5097;43.260;27.812;2022-10-16T07:13:52;101117.69;;;13.70;56.87
10115;BME280;5097;43.260;27.812;2022-10-16T07:16:37;101116.44;;;13.95;56.73
10115;BME280;5097;43.260;27.812;2022-10-16T07:19:21;101128.38;;;13.86;56.96
10115;BME280;5097;43.260;27.812;2022-10-16T07:22:05;101107.31;;;13.83;56.83
10115;BME280;5097;43.260;27.812;2022-10-16T07:24:49;101110.31;;;14.10;56.09
10115;BME280;5097;43.260;27.812;2022-10-16T07:27:34;101118.97;;;14.31;55.56
10115;BME280;5097;43.260;27.812;2022-10-16T07:30:20;101123.13;;;14.19;55.94
10115;BME280;5097;43.260;27.812;2022-10-16T07:33:04;101079.63;;;14.04;55.56
10115;BME280;5097;43.260;27.812;2022-10-16T07:35:49;101099.16;;;14.37;55.31
10115;BME280;5097;43.260;27.812;2022-10-16T07:38:34;101122.59;;;14.46;54.78
10115;BME280;5097;43.260;27.812;2022-10-16T07:41:19;101121.88;;;14.27;55.39
10115;BME280;5097;43.260;27.812;2022-10-16T07:44:03;101125.25;;;14.13;55.25
10115;BME280;5097;43.260;27.812;2022-10-16T07:46:48;101132.69;;;14.06;55.39
10115;BME280;5097;43.260;27.812;2022-10-16T07:49:32;101137.06;;;14.58;54.44
10115;BME280;5097;43.260;27.812;2022-10-16T07:52:16;101126.69;;;14.36;54.59
10115;BME280;5097;43.260;27.812;2022-10-16T07:55:00;101139.50;;;14.79;53.90
10115;BME280;5097;43.260;27.812;2022-10-16T07:57:44;101125.72;;;14.54;54.44
10115;BME280;5097;43.260;27.812;2022-10-16T08:00:27;101112.59;;;14.18;54.58
10115;BME280;5097;43.260;27.812;2022-10-16T08:03:12;101117.09;;;14.33;54.58
10115;BME280;5097;43.260;27.812;2022-10-16T08:05:57;101120.19;;;14.08;54.32
10115;BME280;5097;43.260;27.812;2022-10-16T08:08:41;101090.53;;;14.33;53.64
10115;BME280;5097;43.260;27.812;2022-10-16T08:11:25;101124.88;;;14.54;54.06
10115;BME280;5097;43.260;27.812;2022-10-16T08:14:08;101126.06;;;15.14;53.43
10115;BME280;5097;43.260;27.812;2022-10-16T08:16:53;101108.19;;;14.84;52.24
10115;BME280;5097;43.260;27.812;2022-10-16T08:19:38;101127.97;;;14.62;53.03
10115;BME280;5097;43.260;27.812;2022-10-16T08:22:21;101140.56;;;15.08;52.86
10115;BME280;5097;43.260;27.812;2022-10-16T08:25:05;101139.50;;;14.79;52.18
10115;BME280;5097;43.260;27.812;2022-10-16T08:27:50;101134.53;;;14.72;52.83
10115;BME280;5097;43.260;27.812;2022-10-16T08:30:34;101138.25;;;15.02;51.61
10115;BME280;5097;43.260;27.812;2022-10-16T08:33:18;101137.63;;;14.81;52.60
10115;BME280;5097;43.260;27.812;2022-10-16T08:36:05;101116.97;;;15.02;51.46
10115;BME280;5097;43.260;27.812;2022-10-16T08:38:49;101134.00;;;15.46;51.06
10115;BME280;5097;43.260;27.812;2022-10-16T08:42:03;101132.59;;;15.70;50.08
10115;BME280;5097;43.260;27.812;2022-10-16T08:45:09;101133.38;;;15.56;48.92
10115;BME280;5097;43.260;27.812;2022-10-16T08:48:04;101145.72;;;15.27;49.37
10115;BME280;5097;43.260;27.812;2022-10-16T08:50:53;101142.97;;;15.45;48.80
10115;BME280;5097;43.260;27.812;2022-10-16T08:53:49;101131.59;;;15.57;48.82
10115;BME280;5097;43.260;27.812;2022-10-16T08:56:34;101157.91;;;15.47;49.30
10115;BME280;5097;43.260;27.812;2022-10-16T08:59:18;101160.63;;;15.46;48.74
10115;BME280;5097;43.260;27.812;2022-10-16T09:02:18;101151.69;;;15.63;48.64
10115;BME280;5097;43.260;27.812;2022-10-16T09:05:24;101158.13;;;15.58;48.98
10115;BME280;5097;43.260;27.812;2022-10-16T09:08:17;101164.31;;;15.59;48.57
10115;BME280;5097;43.260;27.812;2022-10-16T09:11:15;101159.03;;;15.73;48.49
10115;BME280;5097;43.260;27.812;2022-10-16T09:14:07;101123.72;;;15.86;47.96
10115;BME280;5097;43.260;27.812;2022-10-16T09:17:00;101158.63;;;15.81;48.07
10115;BME280;5097;43.260;27.812;2022-10-16T09:19:52;101162.63;;;16.19;47.15
10115;BME280;5097;43.260;27.812;2022-10-16T09:22:39;101164.19;;;16.52;46.74
10115;BME280;5097;43.260;27.812;2022-10-16T09:25:23;101153.78;;;16.47;46.63
10115;BME280;5097;43.260;27.812;2022-10-16T09:28:09;101151.22;;;16.17;47.42
10115;BME280;5097;43.260;27.812;2022-10-16T09:30:53;101158.44;;;16.15;47.20
10115;BME280;5097;43.260;27.812;2022-10-16T09:33:39;101153.50;;;15.92;47.95
10115;BME280;5097;43.260;27.812;2022-10-16T09:36:25;101126.22;;;15.73;47.23
10115;BME280;5097;43.260;27.812;2022-10-16T09:39:11;101168.75;;;15.74;47.87
10115;BME280;5097;43.260;27.812;2022-10-16T09:41:56;101161.50;;;16.23;47.05
10115;BME280;5097;43.260;27.812;2022-10-16T09:44:41;101123.47;;;16.19;46.90
10115;BME280;5097;43.260;27.812;2022-10-16T09:47:26;101151.69;;;16.23;47.16
10115;BME280;5097;43.260;27.812;2022-10-16T09:50:21;101153.91;;;16.74;45.88
10115;BME280;5097;43.260;27.812;2022-10-16T09:53:11;101142.28;;;16.47;45.87
10115;BME280;5097;43.260;27.812;2022-10-16T09:55:55;101111.06;;;16.34;46.14
10115;BME280;5097;43.260;27.812;2022-10-16T09:58:42;101152.56;;;16.82;45.41
10115;BME280;5097;43.260;27.812;2022-10-16T10:01:35;101139.44;;;16.64;45.27
10115;BME280;5097;43.260;27.812;2022-10-16T10:04:22;101154.56;;;16.78;44.07
10115;BME280;5097;43.260;27.812;2022-10-16T10:07:16;101144.19;;;16.59;45.08
10115;BME280;5097;43.260;27.812;2022-10-16T10:10:04;101151.03;;;16.63;45.62
10115;BME280;5097;43.260;27.812;2022-10-16T10:12:48;101144.38;;;16.70;45.20
10115;BME280;5097;43.260;27.812;2022-10-16T10:15:34;101158.25;;;16.75;45.50
10115;BME280;5097;43.260;27.812;2022-10-16T10:18:26;101148.19;;;16.52;45.44
10115;BME280;5097;43.260;27.812;2022-10-16T10:21:13;101137.31;;;16.55;45.64
10115;BME280;5097;43.260;27.812;2022-10-16T10:24:00;101147.78;;;16.72;45.08
10115;BME280;5097;43.260;27.812;2022-10-16T10:26:51;101140.94;;;16.54;44.17
10115;BME280;5097;43.260;27.812;2022-10-16T10:29:47;101120.44;;;16.69;43.71
10115;BME280;5097;43.260;27.812;2022-10-16T10:32:39;101123.69;;;16.59;44.16
10115;BME280;5097;43.260;27.812;2022-10-16T10:35:33;101137.50;;;16.81;44.69
10115;BME280;5097;43.260;27.812;2022-10-16T10:38:32;101150.66;;;16.84;44.65
10115;BME280;5097;43.260;27.812;2022-10-16T10:44:54;101148.19;;;16.95;43.20
10115;BME280;5097;43.260;27.812;2022-10-16T10:47:47;101144.41;;;17.54;42.44
10115;BME280;5097;43.260;27.812;2022-10-16T10:50:41;101141.34;;;16.91;42.48
10115;BME280;5097;43.260;27.812;2022-10-16T10:53:36;101152.09;;;16.75;43.42
10115;BME280;5097;43.260;27.812;2022-10-16T10:56:39;101088.75;;;16.50;43.10
10115;BME280;5097;43.260;27.812;2022-10-16T10:59:37;101131.47;;;17.06;42.79
10115;BME280;5097;43.260;27.812;2022-10-16T11:02:33;101129.72;;;16.92;42.74
10115;BME280;5097;43.260;27.812;2022-10-16T11:05:29;101122.78;;;17.17;41.59
10115;BME280;5097;43.260;27.812;2022-10-16T11:08:19;101124.63;;;17.29;42.04
10115;BME280;5097;43.260;27.812;2022-10-16T11:11:06;101120.81;;;17.33;41.86
10115;BME280;5097;43.260;27.812;2022-10-16T11:13:56;101120.16;;;17.30;41.63
10115;BME280;5097;43.260;27.812;2022-10-16T11:16:44;101099.19;;;16.82;41.82
10115;BME280;5097;43.260;27.812;2022-10-16T11:19:39;101123.41;;;16.93;42.76
10115;BME280;5097;43.260;27.812;2022-10-16T11:22:29;101105.94;;;17.29;41.95
10115;BME280;5097;43.260;27.812;2022-10-16T11:25:20;101132.53;;;17.03;40.14
10115;BME280;5097;43.260;27.812;2022-10-16T11:28:10;101136.59;;;17.23;40.47
10115;BME280;5097;43.260;27.812;2022-10-16T11:30:57;101139.66;;;17.45;41.26
10115;BME280;5097;43.260;27.812;2022-10-16T11:33:45;101138.56;;;17.34;41.97
10115;BME280;5097;43.260;27.812;2022-10-16T11:36:33;101124.88;;;17.66;41.11
10115;BME280;5097;43.260;27.812;2022-10-16T11:39:21;101119.13;;;17.45;41.11
10115;BME280;5097;43.260;27.812;2022-10-16T11:42:10;101121.06;;;17.43;41.04
10115;BME280;5097;43.260;27.812;2022-10-16T11:44:57;101119.47;;;17.40;41.11
10115;BME280;5097;43.260;27.812;2022-10-16T11:47:48;101132.41;;;17.47;40.20
10115;BME280;5097;43.260;27.812;2022-10-16T11:50:45;101133.56;;;17.70;40.38
10115;BME280;5097;43.260;27.812;2022-10-16T11:53:42;101114.69;;;17.58;40.69
10115;BME280;5097;43.260;27.812;2022-10-16T11:56:30;101124.53;;;17.58;40.74
10115;BME280;5097;43.260;27.812;2022-10-16T11:59:21;101130.25;;;17.39;39.55
10115;BME280;5097;43.260;27.812;2022-10-16T12:02:24;101143.94;;;17.20;40.31
10115;BME280;5097;43.260;27.812;2022-10-16T12:05:18;101116.78;;;17.13;40.78
10115;BME280;5097;43.260;27.812;2022-10-16T12:08:08;101137.94;;;17.43;40.51
10115;BME280;5097;43.260;27.812;2022-10-16T12:10:53;101122.97;;;17.68;39.84
10115;BME280;5097;43.260;27.812;2022-10-16T12:13:39;101131.88;;;17.41;40.73
10115;BME280;5097;43.260;27.812;2022-10-16T12:16:24;101138.97;;;17.28;41.06
10115;BME280;5097;43.260;27.812;2022-10-16T12:19:13;101127.31;;;17.29;41.56
10115;BME280;5097;43.260;27.812;2022-10-16T12:21:59;101131.50;;;17.73;41.19
10115;BME280;5097;43.260;27.812;2022-10-16T12:24:43;101140.06;;;17.79;40.29
10115;BME280;5097;43.260;27.812;2022-10-16T12:27:29;101126.38;;;17.70;40.53
10115;BME280;5097;43.260;27.812;2022-10-16T12:30:20;101143.28;;;17.71;40.20
10115;BME280;5097;43.260;27.812;2022-10-16T12:33:19;101135.84;;;17.49;40.54
10115;BME280;5097;43.260;27.812;2022-10-16T12:36:11;101129.94;;;17.16;40.94
10115;BME280;5097;43.260;27.812;2022-10-16T12:38:56;101153.03;;;17.45;40.99
10115;BME280;5097;43.260;27.812;2022-10-16T12:41:41;101149.41;;;17.46;40.77
10115;BME280;5097;43.260;27.812;2022-10-16T12:44:24;101166.78;;;17.38;40.84
10115;BME280;5097;43.260;27.812;2022-10-16T12:47:20;101159.06;;;17.34;40.41
10115;BME280;5097;43.260;27.812;2022-10-16T12:50:28;101166.38;;;17.45;40.31
10115;BME280;5097;43.260;27.812;2022-10-16T12:53:20;101177.16;;;17.70;40.20
10115;BME280;5097;43.260;27.812;2022-10-16T12:56:10;101171.00;;;17.28;40.83
10115;BME280;5097;43.260;27.812;2022-10-16T12:59:07;101162.91;;;17.30;40.60
10115;BME280;5097;43.260;27.812;2022-10-16T13:02:11;101163.22;;;17.52;40.02
10115;BME280;5097;43.260;27.812;2022-10-16T13:05:11;101160.59;;;17.38;40.54
10115;BME280;5097;43.260;27.812;2022-10-16T13:08:11;101160.47;;;17.67;40.18
10115;BME280;5097;43.260;27.812;2022-10-16T13:11:05;101159.63;;;17.66;40.64
10115;BME280;5097;43.260;27.812;2022-10-16T13:14:09;101151.31;;;17.84;39.97
10115;BME280;5097;43.260;27.812;2022-10-16T13:17:05;101159.41;;;17.69;39.64
10115;BME280;5097;43.260;27.812;2022-10-16T13:19:57;101167.53;;;17.68;39.87
10115;BME280;5097;43.260;27.812;2022-10-16T13:22:51;101163.50;;;17.48;39.67
10115;BME280;5097;43.260;27.812;2022-10-16T13:25:49;101140.41;;;17.47;39.79
10115;BME280;5097;43.260;27.812;2022-10-16T13:28:38;101169.44;;;17.66;39.63
10115;BME280;5097;43.260;27.812;2022-10-16T13:31:24;101164.56;;;17.72;39.36
10115;BME280;5097;43.260;27.812;2022-10-16T13:34:13;101172.31;;;17.35;40.15
10115;BME280;5097;43.260;27.812;2022-10-16T13:36:58;101171.13;;;17.54;39.73
10115;BME280;5097;43.260;27.812;2022-10-16T13:39:41;101172.91;;;17.81;39.80
10115;BME280;5097;43.260;27.812;2022-10-16T13:42:27;101164.16;;;17.51;39.58
10115;BME280;5097;43.260;27.812;2022-10-16T13:45:18;101172.47;;;17.47;39.66
10115;BME280;5097;43.260;27.812;2022-10-16T13:48:03;101169.78;;;17.19;40.06
10115;BME280;5097;43.260;27.812;2022-10-16T13:50:58;101177.91;;;17.03;40.37
10115;BME280;5097;43.260;27.812;2022-10-16T13:53:42;101164.75;;;17.15;40.50
10115;BME280;5097;43.260;27.812;2022-10-16T13:56:28;101165.81;;;17.12;40.06
10115;BME280;5097;43.260;27.812;2022-10-16T13:59:24;101170.63;;;17.20;39.82
10115;BME280;5097;43.260;27.812;2022-10-16T14:02:18;101180.22;;;16.95;40.21
10115;BME280;5097;43.260;27.812;2022-10-16T14:05:07;101174.78;;;16.97;39.92
10115;BME280;5097;43.260;27.812;2022-10-16T14:07:54;101174.75;;;17.11;40.36
10115;BME280;5097;43.260;27.812;2022-10-16T14:10:39;101176.78;;;16.93;40.38
10115;BME280;5097;43.260;27.812;2022-10-16T14:13:29;101189.34;;;16.76;40.76
10115;BME280;5097;43.260;27.812;2022-10-16T14:16:18;101188.19;;;16.81;40.98
10115;BME280;5097;43.260;27.812;2022-10-16T14:19:04;101181.53;;;16.73;40.74
10115;BME280;5097;43.260;27.812;2022-10-16T14:21:50;101186.88;;;16.73;40.64
10115;BME280;5097;43.260;27.812;2022-10-16T14:24:34;101187.88;;;16.42;41.37
10115;BME280;5097;43.260;27.812;2022-10-16T14:27:26;101188.22;;;16.52;40.87
10115;BME280;5097;43.260;27.812;2022-10-16T14:30:15;101179.22;;;16.24;41.03
10115;BME280;5097;43.260;27.812;2022-10-16T14:33:02;101189.63;;;16.57;41.11
10115;BME280;5097;43.260;27.812;2022-10-16T14:36:03;101201.63;;;16.79;40.82
10115;BME280;5097;43.260;27.812;2022-10-16T14:38:50;101205.28;;;16.64;40.92
10115;BME280;5097;43.260;27.812;2022-10-16T14:41:41;101203.16;;;16.69;40.71